createdAt,value
2022-11-16T00:02:13.953Z,70.45
2022-11-16T00:04:41.857Z,69.83
2022-11-16T00:07:09.699Z,71.37
2022-11-16T00:09:37.347Z,70.95
2022-11-16T00:12:07.603Z,70.45
2022-11-16T00:14:36.504Z,70.22
2022-11-16T00:17:05.184Z,70.09
2022-11-16T00:19:32.779Z,69.88
2022-11-16T00:22:00.354Z,70.01
2022-11-16T00:24:27.898Z,70.26
2022-11-16T00:26:56.475Z,69.74
2022-11-16T00:29:26.251Z,69.73
2022-11-16T00:31:54.495Z,69.60
2022-11-16T00:34:23.829Z,69.69
2022-11-16T00:36:51.872Z,69.90
2022-11-16T00:39:19.730Z,69.65
2022-11-16T00:41:48.134Z,70.22
2022-11-16T00:44:15.886Z,70.05
2022-11-16T00:46:43.611Z,70.02
2022-11-16T00:49:11.705Z,70.46
2022-11-16T00:51:39.271Z,70.57
2022-11-16T00:54:09.656Z,70.37
2022-11-16T00:56:38.271Z,70.48
2022-11-16T00:59:07.100Z,70.46
2022-11-16T01:01:34.734Z,70.39
2022-11-16T01:04:02.696Z,70.40
2022-11-16T01:06:30.192Z,70.90
2022-11-16T01:08:57.688Z,70.53
2022-11-16T01:11:43.402Z,70.71
2022-11-16T01:14:10.935Z,71.25
2022-11-16T01:16:38.685Z,71.09
2022-11-16T01:19:06.491Z,71.29
2022-11-16T01:21:59.408Z,71.68
2022-11-16T01:24:27.899Z,71.96
2022-11-16T01:26:57.256Z,71.67
2022-11-16T01:29:30.501Z,71.47
2022-11-16T01:32:01.533Z,70.86
2022-11-16T01:34:29.107Z,71.67
2022-11-16T01:37:03.483Z,71.80
2022-11-16T01:39:34.915Z,71.60
2022-11-16T01:42:08.283Z,71.54
2022-11-16T01:44:36.214Z,71.86
2022-11-16T01:47:17.094Z,71.56
2022-11-16T01:49:50.052Z,71.43
2022-11-16T01:52:23.923Z,72.15
2022-11-16T01:54:55.884Z,72.50
2022-11-16T02:16:15.086Z,73.22
2022-11-16T02:19:40.747Z,73.38
2022-11-16T02:22:29.961Z,73.24
2022-11-16T02:25:08.412Z,72.85
2022-11-16T02:27:36.566Z,73.26
2022-11-16T02:30:05.903Z,73.38
2022-11-16T02:32:42.665Z,73.58
2022-11-16T02:35:14.435Z,73.09
2022-11-16T02:37:51.546Z,73.79
2022-11-16T02:40:22.863Z,72.99
2022-11-16T02:42:58.473Z,73.88
2022-11-16T02:45:30.769Z,73.23
2022-11-16T02:48:03.511Z,73.11
2022-11-16T02:50:33.936Z,73.40
2022-11-16T02:53:01.632Z,72.75
2022-11-16T02:55:38.611Z,73.61
2022-11-16T02:58:10.062Z,73.24
2022-11-16T03:01:10.554Z,73.70
2022-11-16T03:03:56.810Z,73.96
2022-11-16T03:06:29.400Z,73.60
2022-11-16T03:09:04.327Z,73.90
2022-11-16T03:11:55.785Z,73.91
2022-11-16T03:14:26.634Z,73.40
2022-11-16T03:16:59.379Z,73.69
2022-11-16T03:19:42.767Z,73.58
2022-11-16T03:22:41.703Z,73.80
2022-11-16T03:25:12.498Z,73.22
2022-11-16T03:28:06.351Z,74.06
2022-11-16T03:30:47.877Z,73.70
2022-11-16T03:33:26.101Z,73.46
2022-11-16T03:35:59.499Z,72.82
2022-11-16T03:38:33.822Z,73.46
2022-11-16T03:41:07.389Z,73.92
2022-11-16T03:43:37.203Z,73.70
2022-11-16T03:46:08.809Z,73.54
2022-11-16T03:48:38.371Z,73.89
2022-11-16T03:51:13.362Z,74.16
2022-11-16T03:53:41.727Z,74.08
2022-11-16T03:56:11.088Z,74.30
2022-11-16T03:58:39.631Z,73.79
2022-11-16T04:01:07.382Z,74.33
2022-11-16T04:03:35.108Z,74.31
2022-11-16T04:06:21.053Z,73.64
2022-11-16T04:09:07.770Z,74.76
2022-11-16T04:12:00.355Z,73.86
2022-11-16T04:14:47.246Z,74.46
2022-11-16T04:17:38.232Z,74.14
2022-11-16T04:20:24.713Z,74.29
2022-11-16T04:23:16.516Z,74.22
2022-11-16T04:25:47.183Z,74.66
2022-11-16T04:28:20.383Z,74.66
2022-11-16T04:31:16.224Z,74.72
2022-11-16T04:34:28.921Z,74.86
2022-11-16T04:37:17.843Z,75.47
2022-11-16T04:39:45.697Z,75.05
2022-11-16T04:42:20.124Z,74.39
2022-11-16T04:45:09.664Z,74.82
2022-11-16T04:47:44.801Z,73.96
2022-11-16T04:50:13.113Z,74.43
2022-11-16T04:52:42.199Z,74.12
2022-11-16T04:55:13.104Z,73.79
2022-11-16T04:57:41.365Z,74.53
2022-11-16T05:00:09.525Z,74.37
2022-11-16T05:02:39.464Z,74.25
2022-11-16T05:05:07.505Z,73.52
2022-11-16T05:07:36.797Z,73.25
2022-11-16T05:10:37.778Z,73.24
2022-11-16T05:13:05.249Z,72.83
2022-11-16T05:15:33.932Z,72.55
2022-11-16T05:18:01.478Z,72.68
2022-11-16T05:20:48.681Z,72.25
2022-11-16T05:23:34.583Z,72.17
2022-11-16T05:26:08.057Z,71.87
2022-11-16T05:28:35.763Z,71.39
2022-11-16T05:31:03.603Z,71.25
2022-11-16T05:33:33.429Z,71.20
2022-11-16T05:36:01.164Z,71.43
2022-11-16T05:38:28.754Z,70.92
2022-11-16T05:40:59.244Z,70.97
2022-11-16T05:43:29.898Z,70.85
2022-11-16T05:46:10.338Z,70.32
2022-11-16T05:48:39.029Z,70.14
2022-11-16T05:51:07.775Z,70.22
2022-11-16T05:53:35.749Z,69.57
2022-11-16T05:56:03.822Z,69.71
2022-11-16T05:58:36.056Z,69.32
2022-11-16T06:01:04.550Z,69.51
2022-11-16T06:03:33.216Z,69.31
2022-11-16T06:06:01.095Z,68.66
2022-11-16T06:08:30.720Z,68.47
2022-11-16T06:11:05.707Z,68.39
2022-11-16T06:13:37.257Z,67.73
2022-11-16T06:16:08.305Z,67.38
2022-11-16T06:18:41.444Z,66.99
2022-11-16T06:21:09.711Z,66.87
2022-11-16T06:23:37.732Z,66.47
2022-11-16T06:26:06.741Z,64.80
2022-11-16T06:28:36.070Z,63.63
2022-11-16T06:31:04.755Z,61.76
2022-11-16T06:33:36.543Z,61.83
2022-11-16T06:36:08.683Z,59.36
2022-11-16T06:38:37.632Z,56.34
2022-11-16T06:41:05.505Z,54.44
2022-11-16T06:43:38.728Z,52.69
2022-11-16T06:46:11.610Z,53.18
2022-11-16T06:48:40.551Z,52.96
2022-11-16T06:51:12.156Z,53.98
2022-11-16T06:53:45.198Z,53.49
2022-11-16T06:56:15.836Z,54.04
2022-11-16T06:58:53.508Z,54.54
2022-11-16T07:01:22.253Z,54.64
2022-11-16T07:03:51.259Z,55.00
2022-11-16T07:06:19.705Z,54.19
2022-11-16T07:08:47.291Z,55.07
2022-11-16T07:11:20.413Z,55.04
2022-11-16T07:13:51.265Z,54.77
2022-11-16T07:16:18.991Z,54.63
2022-11-16T07:18:56.937Z,55.42
2022-11-16T07:21:25.951Z,54.17
2022-11-16T07:23:55.830Z,53.36
2022-11-16T07:26:24.463Z,52.58
2022-11-16T07:29:01.070Z,51.42
2022-11-16T07:31:29.507Z,51.36
2022-11-16T07:34:17.237Z,52.11
2022-11-16T07:36:50.487Z,50.54
2022-11-16T07:39:18.277Z,51.91
2022-11-16T07:41:47.253Z,51.28
2022-11-16T07:44:25.219Z,52.47
2022-11-16T07:47:05.867Z,53.14
2022-11-16T07:49:35.488Z,52.70
2022-11-16T07:52:24.459Z,53.93
2022-11-16T07:55:07.117Z,52.80
2022-11-16T07:57:35.394Z,52.77
2022-11-16T08:00:07.162Z,52.32
2022-11-16T08:02:56.461Z,52.63
2022-11-16T08:05:24.640Z,53.10
2022-11-16T08:07:52.319Z,52.33
2022-11-16T08:10:23.747Z,51.94
2022-11-16T08:12:55.107Z,52.93
2022-11-16T08:15:25.893Z,52.25
2022-11-16T08:17:53.824Z,52.08
2022-11-16T08:20:22.453Z,51.87
2022-11-16T08:22:51.812Z,50.65
2022-11-16T08:25:19.583Z,51.35
2022-11-16T08:27:48.036Z,50.95
2022-11-16T08:30:18.191Z,51.11
2022-11-16T08:32:46.315Z,50.92
2022-11-16T08:35:15.528Z,51.27
2022-11-16T08:37:44.406Z,51.33
2022-11-16T08:40:12.603Z,50.68
2022-11-16T08:42:43.908Z,51.10
2022-11-16T08:45:12.853Z,50.88
2022-11-16T08:47:41.704Z,51.35
2022-11-16T08:50:26.904Z,51.38
2022-11-16T08:52:54.521Z,50.97
2022-11-16T08:55:24.296Z,51.27
2022-11-16T08:57:52.477Z,51.25
2022-11-16T09:00:20.444Z,50.12
2022-11-16T09:02:48.036Z,50.65
2022-11-16T09:05:16.454Z,50.23
2022-11-16T09:07:46.006Z,51.03
2022-11-16T09:10:14.499Z,49.98
2022-11-16T09:12:54.876Z,49.83
2022-11-16T09:15:22.852Z,50.03
2022-11-16T09:17:55.314Z,49.66
2022-11-16T09:20:23.246Z,48.76
2022-11-16T09:22:50.812Z,48.94
2022-11-16T09:25:19.420Z,49.72
2022-11-16T09:27:46.983Z,49.38
2022-11-16T09:30:17.791Z,49.17
2022-11-16T09:32:45.266Z,48.66
2022-11-16T09:35:12.937Z,49.45
2022-11-16T09:37:40.520Z,49.45
2022-11-16T09:43:07.170Z,49.53
2022-11-16T09:46:02.719Z,49.62
2022-11-16T09:48:36.201Z,48.17
2022-11-16T09:51:09.297Z,47.93
2022-11-16T09:54:12.106Z,47.20
2022-11-16T09:56:42.699Z,48.29
2022-11-16T09:59:18.495Z,48.31
2022-11-16T10:02:23.964Z,48.17
2022-11-16T10:05:03.244Z,47.47
2022-11-16T10:07:42.872Z,46.81
2022-11-16T10:10:35.202Z,46.31
2022-11-16T10:13:02.677Z,45.70
2022-11-16T10:15:55.092Z,44.98
2022-11-16T10:18:37.097Z,45.21
2022-11-16T10:21:23.922Z,44.51
2022-11-16T10:24:02.093Z,44.78
2022-11-16T10:26:35.604Z,45.48
2022-11-16T10:29:26.335Z,46.80
2022-11-16T10:32:05.749Z,46.65
2022-11-16T10:34:54.879Z,46.38
2022-11-16T10:37:28.023Z,47.12
2022-11-16T10:42:45.712Z,47.39
2022-11-16T10:45:30.705Z,46.93
2022-11-16T10:48:15.485Z,46.43
2022-11-16T10:50:48.322Z,46.41
2022-11-16T10:53:26.183Z,46.36
2022-11-16T10:56:18.059Z,45.79
2022-11-16T10:59:00.666Z,45.69
2022-11-16T11:01:34.574Z,46.22
2022-11-16T11:04:29.826Z,46.25
2022-11-16T11:07:01.505Z,47.19
2022-11-16T11:09:39.166Z,47.49
2022-11-16T11:12:36.894Z,47.80
2022-11-16T11:15:27.405Z,47.26
2022-11-16T11:18:12.454Z,47.11
2022-11-16T11:20:44.664Z,47.90
2022-11-16T11:23:22.678Z,48.24
2022-11-16T11:25:57.432Z,48.23
2022-11-16T11:28:34.219Z,48.63
2022-11-16T11:31:07.633Z,48.37
2022-11-16T11:33:39.502Z,48.04
2022-11-16T11:36:32.593Z,48.38
2022-11-16T11:39:16.444Z,48.58
2022-11-16T11:41:46.171Z,48.81
2022-11-16T11:44:13.665Z,49.53
2022-11-16T11:47:42.468Z,49.45
2022-11-16T11:49:50.203Z,49.53
2022-11-16T11:52:25.685Z,49.20
2022-11-16T11:54:56.149Z,48.98
2022-11-16T11:57:25.977Z,49.67
2022-11-16T11:59:55.560Z,49.52
2022-11-16T12:02:53.586Z,49.67
2022-11-16T12:05:20.973Z,49.48
2022-11-16T12:08:18.462Z,50.20
2022-11-16T12:11:04.447Z,50.35
2022-11-16T12:14:02.615Z,49.71
2022-11-16T12:16:47.955Z,49.84
2022-11-16T12:19:15.385Z,50.73
2022-11-16T12:22:12.105Z,50.39
2022-11-16T12:25:26.960Z,51.14
2022-11-16T12:28:04.691Z,51.23
2022-11-16T12:30:38.448Z,51.10
2022-11-16T12:33:18.517Z,51.93
2022-11-16T12:36:03.047Z,52.23
2022-11-16T12:38:42.487Z,52.57
2022-11-16T12:41:28.840Z,51.83
2022-11-16T12:44:15.111Z,52.13
2022-11-16T12:47:12.632Z,52.29
2022-11-16T12:49:58.670Z,52.38
2022-11-16T12:52:28.924Z,52.37
2022-11-16T12:55:26.408Z,52.93
2022-11-16T12:57:57.643Z,53.11
2022-11-16T13:00:26.599Z,53.00
2022-11-16T13:03:12.803Z,52.84
2022-11-16T13:06:02.848Z,53.29
2022-11-16T13:08:51.660Z,52.51
2022-11-16T13:11:32.656Z,53.37
2022-11-16T13:14:07.883Z,53.64
2022-11-16T13:16:38.245Z,53.79
2022-11-16T13:22:00.221Z,54.11
2022-11-16T13:24:55.720Z,53.90
2022-11-16T13:27:29.072Z,53.68
2022-11-16T13:30:06.753Z,54.78
2022-11-16T13:33:11.570Z,54.51
2022-11-16T13:35:39.751Z,54.72
2022-11-16T13:38:13.848Z,54.83
2022-11-16T13:40:42.672Z,54.98
2022-11-16T13:43:10.075Z,54.91
2022-11-16T13:46:01.425Z,55.30
2022-11-16T13:48:38.026Z,55.17
2022-11-16T13:51:09.501Z,55.94
2022-11-16T13:56:49.442Z,56.92
2022-11-16T13:59:24.130Z,56.83
2022-11-16T14:02:03.210Z,56.71
2022-11-16T14:04:43.612Z,57.17
2022-11-16T14:07:43.091Z,57.80
2022-11-16T14:10:34.768Z,56.62
2022-11-16T14:13:06.788Z,57.45
2022-11-16T14:15:39.005Z,57.23
2022-11-16T14:18:12.197Z,58.18
2022-11-16T14:21:05.307Z,58.14
2022-11-16T14:23:54.848Z,58.05
2022-11-16T14:26:46.480Z,58.15
2022-11-16T14:29:20.906Z,58.54
2022-11-16T14:31:52.875Z,58.61
2022-11-16T14:34:42.437Z,58.28
2022-11-16T14:37:35.244Z,57.83
2022-11-16T14:40:23.019Z,58.74
2022-11-16T14:43:15.503Z,58.58
2022-11-16T14:45:46.945Z,58.65
2022-11-16T14:48:20.081Z,58.79
2022-11-16T14:51:14.463Z,59.10
2022-11-16T14:54:31.571Z,58.88
2022-11-16T14:57:04.704Z,58.60
2022-11-16T14:59:32.957Z,59.16
2022-11-16T15:02:13.369Z,59.70
2022-11-16T15:04:40.981Z,59.62
2022-11-16T15:07:08.736Z,58.88
2022-11-16T15:09:41.439Z,59.80
2022-11-16T15:12:36.932Z,59.40
2022-11-16T15:15:25.352Z,59.52
2022-11-16T15:18:07.452Z,59.90
2022-11-16T15:20:38.457Z,59.76
2022-11-16T15:23:13.505Z,59.82
2022-11-16T15:25:43.408Z,60.04
2022-11-16T15:28:17.122Z,60.29
2022-11-16T15:31:05.182Z,59.65
2022-11-16T15:33:38.513Z,59.39
2022-11-16T15:36:25.972Z,59.25
2022-11-16T15:38:57.748Z,59.68
2022-11-16T15:41:28.348Z,59.87
2022-11-16T15:44:16.829Z,59.54
2022-11-16T15:46:50.938Z,59.57
2022-11-16T15:49:32.830Z,59.34
2022-11-16T15:52:01.923Z,59.67
2022-11-16T15:54:52.129Z,60.43
2022-11-16T15:57:21.478Z,59.99
2022-11-16T15:59:54.886Z,60.28
2022-11-16T16:02:25.220Z,59.75
2022-11-16T16:04:52.682Z,60.59
2022-11-16T16:07:41.015Z,60.53
2022-11-16T16:13:25.619Z,60.00
2022-11-16T16:16:26.550Z,60.85
2022-11-16T16:19:08.207Z,60.92
2022-11-16T16:21:47.239Z,60.92
2022-11-16T16:24:40.301Z,61.08
2022-11-16T16:27:26.393Z,60.47
2022-11-16T16:29:55.763Z,60.05
2022-11-16T16:32:28.922Z,60.63
2022-11-16T16:35:00.939Z,60.83
2022-11-16T16:37:30.926Z,60.44
2022-11-16T16:40:01.616Z,60.18
2022-11-16T16:42:31.410Z,60.29
2022-11-16T16:45:00.543Z,60.50
2022-11-16T16:47:28.510Z,60.98
2022-11-16T16:49:56.052Z,60.85
2022-11-16T16:52:27.963Z,60.54
2022-11-16T16:57:42.677Z,60.69
2022-11-16T17:00:12.237Z,60.94
2022-11-16T17:02:39.933Z,60.81
2022-11-16T17:05:07.771Z,60.99
2022-11-16T17:07:35.355Z,60.84
2022-11-16T17:10:03.153Z,61.03
2022-11-16T17:12:54.279Z,61.03
2022-11-16T17:15:22.640Z,61.58
2022-11-16T17:17:50.602Z,61.43
2022-11-16T17:20:18.172Z,61.84
2022-11-16T17:22:46.241Z,61.26
2022-11-16T17:25:16.827Z,61.33
2022-11-16T17:27:44.447Z,61.42
2022-11-16T17:30:14.142Z,61.03
2022-11-16T17:32:41.764Z,61.29
2022-11-16T17:35:10.261Z,61.36
2022-11-16T17:37:37.960Z,61.59
2022-11-16T17:40:06.082Z,61.37
2022-11-16T17:42:35.931Z,61.18
2022-11-16T17:45:04.288Z,62.51
2022-11-16T17:47:33.603Z,61.81
2022-11-16T17:50:01.332Z,61.56
2022-11-16T17:52:30.466Z,62.57
2022-11-16T17:54:59.417Z,62.58
2022-11-16T17:57:27.484Z,61.84
2022-11-16T17:59:54.996Z,62.27
2022-11-16T18:02:22.827Z,62.61
2022-11-16T18:04:51.450Z,62.31
2022-11-16T18:07:20.349Z,62.76
2022-11-16T18:09:50.449Z,62.77
2022-11-16T18:12:17.963Z,62.24
2022-11-16T18:15:06.263Z,63.07
2022-11-16T18:17:35.017Z,63.03
2022-11-16T18:20:04.997Z,62.27
2022-11-16T18:22:32.537Z,63.26
2022-11-16T18:25:00.303Z,63.34
2022-11-16T18:27:28.014Z,63.85
2022-11-16T18:29:55.600Z,63.07
2022-11-16T18:32:23.073Z,63.24
2022-11-16T18:34:50.816Z,63.72
2022-11-16T18:37:18.523Z,63.73
2022-11-16T18:39:46.081Z,63.35
2022-11-16T18:42:16.446Z,63.44
2022-11-16T18:44:43.994Z,63.73
2022-11-16T18:47:11.472Z,62.91
2022-11-16T18:52:20.172Z,64.01
2022-11-16T18:54:47.645Z,64.01
2022-11-16T18:57:15.160Z,63.72
2022-11-16T18:59:42.670Z,63.95
2022-11-16T19:02:12.871Z,64.56
2022-11-16T19:04:43.153Z,64.33
2022-11-16T19:07:10.695Z,64.16
2022-11-16T19:09:45.277Z,64.99
2022-11-16T19:12:13.897Z,65.07
2022-11-16T19:14:41.773Z,64.58
2022-11-16T19:17:10.003Z,65.07
2022-11-16T19:19:37.476Z,65.09
2022-11-16T19:22:04.940Z,65.52
2022-11-16T19:24:32.503Z,65.76
2022-11-16T19:26:59.945Z,65.06
2022-11-16T19:29:27.464Z,65.19
2022-11-16T19:31:54.951Z,65.11
2022-11-16T19:34:22.451Z,65.68
2022-11-16T19:36:49.993Z,65.40
2022-11-16T19:39:17.465Z,65.57
2022-11-16T19:41:45.063Z,65.97
2022-11-16T19:44:12.544Z,65.84
2022-11-16T19:46:40.061Z,66.30
2022-11-16T19:49:09.555Z,66.26
2022-11-16T19:51:37.067Z,66.05
2022-11-16T19:54:04.926Z,65.80
2022-11-16T19:56:32.465Z,66.35
2022-11-16T19:59:00.028Z,66.74
2022-11-16T20:01:29.688Z,66.86
2022-11-16T20:03:59.527Z,66.98
2022-11-16T20:06:35.820Z,66.58
2022-11-16T20:09:09.055Z,67.53
2022-11-16T20:11:38.294Z,66.49
2022-11-16T20:14:08.398Z,66.83
2022-11-16T20:16:39.869Z,66.16
2022-11-16T20:19:08.852Z,66.28
2022-11-16T20:21:41.496Z,66.11
2022-11-16T20:24:12.804Z,66.44
2022-11-16T20:26:48.656Z,65.35
2022-11-16T20:29:19.747Z,65.59
2022-11-16T20:31:47.794Z,66.43
2022-11-16T20:34:17.241Z,67.14
2022-11-16T20:37:43.211Z,66.58
2022-11-16T20:39:47.122Z,66.14
2022-11-16T20:42:14.591Z,66.17
2022-11-16T20:44:42.127Z,66.29
2022-11-16T20:47:09.652Z,66.32
2022-11-16T20:49:37.204Z,66.95
2022-11-16T20:52:04.815Z,66.43
2022-11-16T20:54:32.344Z,66.84
2022-11-16T20:57:00.020Z,67.12
2022-11-16T20:59:28.249Z,66.87
2022-11-16T21:01:55.885Z,66.65
2022-11-16T21:04:23.451Z,66.77
2022-11-16T21:06:51.013Z,67.69
2022-11-16T21:09:23.015Z,67.61
2022-11-16T21:12:09.013Z,67.12
2022-11-16T21:14:36.680Z,67.32
2022-11-16T21:17:04.243Z,67.00
2022-11-16T21:19:31.797Z,67.87
2022-11-16T21:21:59.236Z,67.78
2022-11-16T21:24:29.594Z,67.57
2022-11-16T21:26:57.115Z,67.67
2022-11-16T21:29:26.205Z,67.93
2022-11-16T21:31:53.605Z,67.67
2022-11-16T21:34:21.155Z,67.62
2022-11-16T21:36:48.992Z,67.31
2022-11-16T21:39:16.467Z,67.20
2022-11-16T21:41:43.959Z,67.89
2022-11-16T21:44:11.422Z,67.42
2022-11-16T21:46:38.885Z,67.18
2022-11-16T21:49:07.792Z,67.01
2022-11-16T21:51:35.302Z,67.88
2022-11-16T21:54:02.717Z,67.86
2022-11-16T21:56:30.135Z,66.90
2022-11-16T21:59:00.448Z,67.22
2022-11-16T22:01:47.876Z,67.25
2022-11-16T22:04:33.544Z,67.48
2022-11-16T22:07:19.139Z,67.89
2022-11-16T22:09:46.620Z,67.70
2022-11-16T22:12:14.049Z,67.72
2022-11-16T22:14:41.533Z,68.21
2022-11-16T22:17:10.361Z,67.79
2022-11-16T22:19:37.823Z,67.15
2022-11-16T22:22:05.248Z,68.23
2022-11-16T22:24:32.744Z,67.40
2022-11-16T22:27:00.354Z,67.26
2022-11-16T22:29:27.844Z,68.11
2022-11-16T22:31:55.473Z,68.13
2022-11-16T22:34:23.983Z,68.24
2022-11-16T22:36:51.475Z,67.74
2022-11-16T22:39:18.980Z,68.16
2022-11-16T22:41:46.478Z,67.91
2022-11-16T22:44:13.933Z,67.28
2022-11-16T22:46:44.342Z,67.78
2022-11-16T22:49:11.842Z,67.55
2022-11-16T22:51:39.774Z,67.47
2022-11-16T22:54:07.647Z,67.48
2022-11-16T22:56:35.088Z,67.93
2022-11-16T22:59:05.990Z,67.14
2022-11-16T23:01:33.464Z,67.30
2022-11-16T23:04:00.984Z,68.67
2022-11-16T23:06:29.023Z,68.03
2022-11-16T23:08:56.492Z,68.54
2022-11-16T23:11:44.183Z,68.50
2022-11-16T23:14:33.433Z,68.78
2022-11-16T23:17:02.059Z,68.53
2022-11-16T23:19:48.515Z,68.79
2022-11-16T23:22:37.661Z,68.52
2022-11-16T23:25:29.945Z,68.74
2022-11-16T23:28:07.024Z,69.67
2022-11-16T23:30:35.919Z,69.37
2022-11-16T23:33:04.473Z,68.83
2022-11-16T23:35:32.188Z,69.36
2022-11-16T23:38:00.671Z,69.82
2022-11-16T23:40:30.580Z,69.98
2022-11-16T23:43:17.513Z,69.93
2022-11-16T23:45:45.708Z,69.89
2022-11-16T23:48:15.601Z,69.81
2022-11-16T23:50:44.262Z,70.42
2022-11-16T23:53:12.472Z,70.44
2022-11-16T23:55:40.990Z,70.67
2022-11-16T23:58:13.844Z,71.19
